sensor_id;sensor_type;location;lat;lon;timestamp;P1;durP1;ratioP1;P2;durP2;ratioP2
21833;SDS011;11079;51.092;3.458;2023-05-10T00:02:14;32.53;;;16.95;;
21833;SDS011;11079;51.092;3.458;2023-05-10T00:04:39;28.98;;;17.35;;
21833;SDS011;11079;51.092;3.458;2023-05-10T00:07:07;32.75;;;18.05;;
21833;SDS011;11079;51.092;3.458;2023-05-10T00:09:35;35.72;;;20.40;;
21833;SDS011;11079;51.092;3.458;2023-05-10T00:12:01;39.17;;;19.92;;
21833;SDS011;11079;51.092;3.458;2023-05-10T00:14:27;45.20;;;22.92;;
21833;SDS011;11079;51.092;3.458;2023-05-10T00:16:53;49.40;;;24.85;;
21833;SDS011;11079;51.092;3.458;2023-05-10T00:19:19;45.08;;;23.10;;
21833;SDS011;11079;51.092;3.458;2023-05-10T00:21:45;45.53;;;23.90;;
21833;SDS011;11079;51.092;3.458;2023-05-10T00:24:10;48.95;;;24.60;;
21833;SDS011;11079;51.092;3.458;2023-05-10T00:26:36;51.50;;;26.48;;
21833;SDS011;11079;51.092;3.458;2023-05-10T00:29:02;53.80;;;28.08;;
21833;SDS011;11079;51.092;3.458;2023-05-10T00:31:27;53.58;;;25.38;;
21833;SDS011;11079;51.092;3.458;2023-05-10T00:33:55;52.83;;;25.65;;
21833;SDS011;11079;51.092;3.458;2023-05-10T00:36:21;55.78;;;26.08;;
21833;SDS011;11079;51.092;3.458;2023-05-10T00:38:48;51.42;;;26.02;;
21833;SDS011;11079;51.092;3.458;2023-05-10T00:41:13;54.58;;;27.42;;
21833;SDS011;11079;51.092;3.458;2023-05-10T00:43:42;51.10;;;25.25;;
21833;SDS011;11079;51.092;3.458;2023-05-10T00:46:16;45.33;;;25.83;;
21833;SDS011;11079;51.092;3.458;2023-05-10T00:48:43;44.65;;;22.30;;
21833;SDS011;11079;51.092;3.458;2023-05-10T00:51:09;40.85;;;22.00;;
21833;SDS011;11079;51.092;3.458;2023-05-10T00:53:36;42.20;;;22.67;;
21833;SDS011;11079;51.092;3.458;2023-05-10T00:56:02;39.95;;;21.90;;
21833;SDS011;11079;51.092;3.458;2023-05-10T00:58:48;37.75;;;21.25;;
21833;SDS011;11079;51.092;3.458;2023-05-10T01:04:16;37.17;;;20.60;;
21833;SDS011;11079;51.092;3.458;2023-05-10T01:06:43;37.53;;;20.00;;
21833;SDS011;11079;51.092;3.458;2023-05-10T01:09:17;37.28;;;21.75;;
21833;SDS011;11079;51.092;3.458;2023-05-10T01:11:44;35.70;;;19.38;;
21833;SDS011;11079;51.092;3.458;2023-05-10T01:14:10;39.17;;;20.33;;
21833;SDS011;11079;51.092;3.458;2023-05-10T01:16:37;35.40;;;19.70;;
21833;SDS011;11079;51.092;3.458;2023-05-10T01:19:28;33.78;;;20.38;;
21833;SDS011;11079;51.092;3.458;2023-05-10T01:32:42;33.97;;;19.35;;
21833;SDS011;11079;51.092;3.458;2023-05-10T01:35:17;35.25;;;20.63;;
21833;SDS011;11079;51.092;3.458;2023-05-10T01:41:01;37.33;;;20.35;;
21833;SDS011;11079;51.092;3.458;2023-05-10T01:46:56;41.05;;;19.98;;
21833;SDS011;11079;51.092;3.458;2023-05-10T01:49:29;34.63;;;19.25;;
21833;SDS011;11079;51.092;3.458;2023-05-10T01:52:00;34.55;;;18.75;;
21833;SDS011;11079;51.092;3.458;2023-05-10T01:54:33;38.10;;;19.42;;
21833;SDS011;11079;51.092;3.458;2023-05-10T01:57:02;34.95;;;19.65;;
21833;SDS011;11079;51.092;3.458;2023-05-10T01:59:37;40.03;;;20.45;;
21833;SDS011;11079;51.092;3.458;2023-05-10T02:02:05;39.45;;;20.35;;
21833;SDS011;11079;51.092;3.458;2023-05-10T02:04:32;38.17;;;20.45;;
21833;SDS011;11079;51.092;3.458;2023-05-10T02:07:02;33.95;;;18.38;;
21833;SDS011;11079;51.092;3.458;2023-05-10T02:09:30;36.45;;;19.63;;
21833;SDS011;11079;51.092;3.458;2023-05-10T02:12:01;33.42;;;18.77;;
21833;SDS011;11079;51.092;3.458;2023-05-10T02:14:35;33.83;;;17.95;;
21833;SDS011;11079;51.092;3.458;2023-05-10T02:17:04;36.22;;;17.95;;
21833;SDS011;11079;51.092;3.458;2023-05-10T02:19:31;32.55;;;18.10;;
21833;SDS011;11079;51.092;3.458;2023-05-10T02:21:59;31.00;;;17.73;;
21833;SDS011;11079;51.092;3.458;2023-05-10T02:24:27;37.10;;;19.13;;
21833;SDS011;11079;51.092;3.458;2023-05-10T02:26:54;42.75;;;20.80;;
21833;SDS011;11079;51.092;3.458;2023-05-10T02:29:24;34.90;;;18.05;;
21833;SDS011;11079;51.092;3.458;2023-05-10T02:31:54;31.52;;;17.58;;
21833;SDS011;11079;51.092;3.458;2023-05-10T02:34:21;29.25;;;17.58;;
21833;SDS011;11079;51.092;3.458;2023-05-10T02:36:51;34.85;;;18.75;;
21833;SDS011;11079;51.092;3.458;2023-05-10T02:39:18;31.55;;;17.35;;
21833;SDS011;11079;51.092;3.458;2023-05-10T02:41:46;31.45;;;17.23;;
21833;SDS011;11079;51.092;3.458;2023-05-10T02:44:14;29.95;;;17.70;;
21833;SDS011;11079;51.092;3.458;2023-05-10T02:46:42;30.92;;;17.10;;
21833;SDS011;11079;51.092;3.458;2023-05-10T02:49:08;28.90;;;16.95;;
21833;SDS011;11079;51.092;3.458;2023-05-10T02:51:35;31.05;;;17.85;;
21833;SDS011;11079;51.092;3.458;2023-05-10T02:54:10;31.52;;;17.90;;
21833;SDS011;11079;51.092;3.458;2023-05-10T02:56:40;31.15;;;17.25;;
21833;SDS011;11079;51.092;3.458;2023-05-10T02:59:12;27.83;;;16.52;;
21833;SDS011;11079;51.092;3.458;2023-05-10T03:01:38;28.30;;;16.13;;
21833;SDS011;11079;51.092;3.458;2023-05-10T03:04:04;29.90;;;15.93;;
21833;SDS011;11079;51.092;3.458;2023-05-10T03:06:30;31.05;;;17.15;;
21833;SDS011;11079;51.092;3.458;2023-05-10T03:08:56;27.83;;;16.85;;
21833;SDS011;11079;51.092;3.458;2023-05-10T03:17:00;31.63;;;18.52;;
21833;SDS011;11079;51.092;3.458;2023-05-10T03:19:54;29.40;;;15.73;;
21833;SDS011;11079;51.092;3.458;2023-05-10T03:22:32;32.38;;;17.70;;
21833;SDS011;11079;51.092;3.458;2023-05-10T03:25:04;29.77;;;17.63;;
21833;SDS011;11079;51.092;3.458;2023-05-10T03:27:33;29.77;;;17.33;;
21833;SDS011;11079;51.092;3.458;2023-05-10T03:30:02;32.08;;;18.60;;
21833;SDS011;11079;51.092;3.458;2023-05-10T03:32:30;29.77;;;17.92;;
21833;SDS011;11079;51.092;3.458;2023-05-10T03:34:57;33.92;;;20.50;;
21833;SDS011;11079;51.092;3.458;2023-05-10T03:37:23;38.65;;;20.55;;
21833;SDS011;11079;51.092;3.458;2023-05-10T03:39:49;38.08;;;21.05;;
21833;SDS011;11079;51.092;3.458;2023-05-10T03:42:15;39.42;;;21.35;;
21833;SDS011;11079;51.092;3.458;2023-05-10T03:44:42;39.58;;;22.40;;
21833;SDS011;11079;51.092;3.458;2023-05-10T03:47:08;39.58;;;22.63;;
21833;SDS011;11079;51.092;3.458;2023-05-10T03:49:34;44.88;;;23.17;;
21833;SDS011;11079;51.092;3.458;2023-05-10T03:52:00;40.33;;;23.75;;
21833;SDS011;11079;51.092;3.458;2023-05-10T03:54:37;40.25;;;23.42;;
21833;SDS011;11079;51.092;3.458;2023-05-10T03:57:04;42.85;;;23.40;;
21833;SDS011;11079;51.092;3.458;2023-05-10T03:59:35;45.92;;;24.17;;
21833;SDS011;11079;51.092;3.458;2023-05-10T04:02:02;42.72;;;24.67;;
21833;SDS011;11079;51.092;3.458;2023-05-10T04:04:29;44.05;;;23.67;;
21833;SDS011;11079;51.092;3.458;2023-05-10T04:06:55;44.47;;;23.60;;
21833;SDS011;11079;51.092;3.458;2023-05-10T04:09:28;46.60;;;24.63;;
21833;SDS011;11079;51.092;3.458;2023-05-10T04:12:01;40.17;;;22.85;;
21833;SDS011;11079;51.092;3.458;2023-05-10T04:14:27;38.90;;;22.98;;
21833;SDS011;11079;51.092;3.458;2023-05-10T04:16:53;43.67;;;24.50;;
21833;SDS011;11079;51.092;3.458;2023-05-10T04:19:18;44.15;;;25.05;;
21833;SDS011;11079;51.092;3.458;2023-05-10T04:21:45;45.45;;;24.05;;
21833;SDS011;11079;51.092;3.458;2023-05-10T04:24:11;43.88;;;23.98;;
21833;SDS011;11079;51.092;3.458;2023-05-10T04:26:37;45.10;;;24.83;;
21833;SDS011;11079;51.092;3.458;2023-05-10T04:29:03;43.40;;;24.52;;
21833;SDS011;11079;51.092;3.458;2023-05-10T04:31:29;48.33;;;26.35;;
21833;SDS011;11079;51.092;3.458;2023-05-10T04:33:55;49.88;;;26.85;;
21833;SDS011;11079;51.092;3.458;2023-05-10T04:36:20;46.00;;;26.63;;
21833;SDS011;11079;51.092;3.458;2023-05-10T04:38:47;41.17;;;23.10;;
21833;SDS011;11079;51.092;3.458;2023-05-10T04:41:17;44.70;;;23.90;;
21833;SDS011;11079;51.092;3.458;2023-05-10T04:43:42;39.42;;;23.50;;
21833;SDS011;11079;51.092;3.458;2023-05-10T04:46:09;38.78;;;23.95;;
21833;SDS011;11079;51.092;3.458;2023-05-10T04:48:38;43.58;;;25.17;;
21833;SDS011;11079;51.092;3.458;2023-05-10T04:51:14;42.08;;;24.10;;
21833;SDS011;11079;51.092;3.458;2023-05-10T04:53:51;41.38;;;23.80;;
21833;SDS011;11079;51.092;3.458;2023-05-10T04:56:21;43.13;;;24.08;;
21833;SDS011;11079;51.092;3.458;2023-05-10T04:58:47;39.53;;;23.85;;
21833;SDS011;11079;51.092;3.458;2023-05-10T05:01:14;35.47;;;21.92;;
21833;SDS011;11079;51.092;3.458;2023-05-10T05:03:41;38.85;;;23.48;;
21833;SDS011;11079;51.092;3.458;2023-05-10T05:06:07;35.53;;;21.52;;
21833;SDS011;11079;51.092;3.458;2023-05-10T05:08:37;31.85;;;20.42;;
21833;SDS011;11079;51.092;3.458;2023-05-10T05:11:03;32.95;;;20.73;;
21833;SDS011;11079;51.092;3.458;2023-05-10T05:13:29;31.55;;;19.88;;
21833;SDS011;11079;51.092;3.458;2023-05-10T05:15:55;33.63;;;19.15;;
21833;SDS011;11079;51.092;3.458;2023-05-10T05:18:20;31.15;;;19.33;;
21833;SDS011;11079;51.092;3.458;2023-05-10T05:20:46;31.70;;;19.98;;
21833;SDS011;11079;51.092;3.458;2023-05-10T05:23:14;28.33;;;18.17;;
21833;SDS011;11079;51.092;3.458;2023-05-10T05:25:39;33.20;;;19.23;;
21833;SDS011;11079;51.092;3.458;2023-05-10T05:28:05;27.77;;;17.60;;
21833;SDS011;11079;51.092;3.458;2023-05-10T05:30:30;27.55;;;17.73;;
21833;SDS011;11079;51.092;3.458;2023-05-10T05:32:56;30.08;;;18.17;;
21833;SDS011;11079;51.092;3.458;2023-05-10T05:35:22;27.58;;;16.92;;
21833;SDS011;11079;51.092;3.458;2023-05-10T05:37:47;25.88;;;17.35;;
21833;SDS011;11079;51.092;3.458;2023-05-10T05:40:14;27.98;;;16.98;;
21833;SDS011;11079;51.092;3.458;2023-05-10T05:42:43;22.90;;;15.77;;
21833;SDS011;11079;51.092;3.458;2023-05-10T05:45:08;25.60;;;16.70;;
21833;SDS011;11079;51.092;3.458;2023-05-10T05:47:37;24.25;;;15.00;;
21833;SDS011;11079;51.092;3.458;2023-05-10T05:50:09;24.90;;;16.08;;
21833;SDS011;11079;51.092;3.458;2023-05-10T05:52:46;24.13;;;15.57;;
21833;SDS011;11079;51.092;3.458;2023-05-10T05:55:14;22.75;;;15.00;;
21833;SDS011;11079;51.092;3.458;2023-05-10T05:57:40;24.20;;;15.45;;
21833;SDS011;11079;51.092;3.458;2023-05-10T06:00:06;22.85;;;14.75;;
21833;SDS011;11079;51.092;3.458;2023-05-10T06:02:32;20.73;;;14.95;;
21833;SDS011;11079;51.092;3.458;2023-05-10T06:04:58;20.95;;;16.17;;
21833;SDS011;11079;51.092;3.458;2023-05-10T06:07:24;24.08;;;14.50;;
21833;SDS011;11079;51.092;3.458;2023-05-10T06:09:50;21.35;;;14.93;;
21833;SDS011;11079;51.092;3.458;2023-05-10T06:12:18;24.77;;;15.10;;
21833;SDS011;11079;51.092;3.458;2023-05-10T06:14:46;20.88;;;15.07;;
21833;SDS011;11079;51.092;3.458;2023-05-10T06:17:13;20.67;;;13.98;;
21833;SDS011;11079;51.092;3.458;2023-05-10T06:19:39;21.27;;;14.88;;
21833;SDS011;11079;51.092;3.458;2023-05-10T06:22:04;27.92;;;17.05;;
21833;SDS011;11079;51.092;3.458;2023-05-10T06:24:30;28.45;;;17.60;;
21833;SDS011;11079;51.092;3.458;2023-05-10T06:26:55;23.17;;;14.65;;
21833;SDS011;11079;51.092;3.458;2023-05-10T06:29:21;21.05;;;13.57;;
21833;SDS011;11079;51.092;3.458;2023-05-10T06:31:47;24.67;;;13.95;;
21833;SDS011;11079;51.092;3.458;2023-05-10T06:34:13;19.95;;;13.82;;
21833;SDS011;11079;51.092;3.458;2023-05-10T06:36:38;22.20;;;14.27;;
21833;SDS011;11079;51.092;3.458;2023-05-10T06:39:04;19.80;;;12.30;;
21833;SDS011;11079;51.092;3.458;2023-05-10T06:41:30;19.77;;;13.15;;
21833;SDS011;11079;51.092;3.458;2023-05-10T06:43:56;21.45;;;14.45;;
21833;SDS011;11079;51.092;3.458;2023-05-10T06:46:23;22.18;;;14.23;;
21833;SDS011;11079;51.092;3.458;2023-05-10T06:48:49;19.48;;;13.45;;
21833;SDS011;11079;51.092;3.458;2023-05-10T06:51:14;22.88;;;14.38;;
21833;SDS011;11079;51.092;3.458;2023-05-10T06:53:40;23.50;;;16.38;;
21833;SDS011;11079;51.092;3.458;2023-05-10T06:56:06;22.50;;;15.45;;
21833;SDS011;11079;51.092;3.458;2023-05-10T06:58:32;19.95;;;13.93;;
21833;SDS011;11079;51.092;3.458;2023-05-10T07:01:02;21.15;;;12.88;;
21833;SDS011;11079;51.092;3.458;2023-05-10T07:03:28;18.95;;;12.82;;
21833;SDS011;11079;51.092;3.458;2023-05-10T07:05:53;17.77;;;12.05;;
21833;SDS011;11079;51.092;3.458;2023-05-10T07:08:24;15.13;;;11.00;;
21833;SDS011;11079;51.092;3.458;2023-05-10T07:10:50;15.50;;;11.65;;
21833;SDS011;11079;51.092;3.458;2023-05-10T07:13:16;16.65;;;11.95;;
21833;SDS011;11079;51.092;3.458;2023-05-10T07:15:41;15.40;;;11.13;;
21833;SDS011;11079;51.092;3.458;2023-05-10T07:18:07;18.13;;;12.48;;
21833;SDS011;11079;51.092;3.458;2023-05-10T07:20:33;19.08;;;12.70;;
21833;SDS011;11079;51.092;3.458;2023-05-10T07:22:59;13.82;;;10.63;;
21833;SDS011;11079;51.092;3.458;2023-05-10T07:25:24;17.10;;;10.90;;
21833;SDS011;11079;51.092;3.458;2023-05-10T07:27:51;18.55;;;11.90;;
21833;SDS011;11079;51.092;3.458;2023-05-10T07:30:18;23.10;;;14.05;;
21833;SDS011;11079;51.092;3.458;2023-05-10T07:32:44;26.10;;;16.88;;
21833;SDS011;11079;51.092;3.458;2023-05-10T07:35:10;29.92;;;16.83;;
21833;SDS011;11079;51.092;3.458;2023-05-10T07:37:36;23.48;;;15.43;;
21833;SDS011;11079;51.092;3.458;2023-05-10T07:40:02;23.05;;;15.07;;
21833;SDS011;11079;51.092;3.458;2023-05-10T07:42:28;26.27;;;15.68;;
21833;SDS011;11079;51.092;3.458;2023-05-10T07:44:54;22.45;;;14.68;;
21833;SDS011;11079;51.092;3.458;2023-05-10T07:47:19;24.63;;;15.00;;
21833;SDS011;11079;51.092;3.458;2023-05-10T07:49:45;24.05;;;14.02;;
21833;SDS011;11079;51.092;3.458;2023-05-10T07:52:11;21.05;;;13.90;;
21833;SDS011;11079;51.092;3.458;2023-05-10T07:54:36;19.33;;;12.65;;
21833;SDS011;11079;51.092;3.458;2023-05-10T07:57:02;18.15;;;11.63;;
21833;SDS011;11079;51.092;3.458;2023-05-10T07:59:28;20.52;;;12.75;;
21833;SDS011;11079;51.092;3.458;2023-05-10T08:01:55;20.30;;;12.90;;
21833;SDS011;11079;51.092;3.458;2023-05-10T08:04:21;18.88;;;13.80;;
21833;SDS011;11079;51.092;3.458;2023-05-10T08:06:47;20.58;;;13.80;;
21833;SDS011;11079;51.092;3.458;2023-05-10T08:09:14;21.98;;;13.60;;
21833;SDS011;11079;51.092;3.458;2023-05-10T08:11:39;19.98;;;12.98;;
21833;SDS011;11079;51.092;3.458;2023-05-10T08:14:05;19.48;;;11.20;;
21833;SDS011;11079;51.092;3.458;2023-05-10T08:16:31;14.18;;;9.95;;
21833;SDS011;11079;51.092;3.458;2023-05-10T08:18:57;19.13;;;10.80;;
21833;SDS011;11079;51.092;3.458;2023-05-10T08:21:23;17.27;;;11.45;;
21833;SDS011;11079;51.092;3.458;2023-05-10T08:23:48;14.63;;;10.38;;
21833;SDS011;11079;51.092;3.458;2023-05-10T08:26:14;17.45;;;10.10;;
21833;SDS011;11079;51.092;3.458;2023-05-10T08:28:40;14.30;;;10.70;;
21833;SDS011;11079;51.092;3.458;2023-05-10T08:31:05;17.55;;;10.18;;
21833;SDS011;11079;51.092;3.458;2023-05-10T08:33:31;19.90;;;10.93;;
21833;SDS011;11079;51.092;3.458;2023-05-10T08:35:57;22.35;;;11.52;;
21833;SDS011;11079;51.092;3.458;2023-05-10T08:38:22;16.00;;;10.88;;
21833;SDS011;11079;51.092;3.458;2023-05-10T08:40:48;13.45;;;11.40;;
21833;SDS011;11079;51.092;3.458;2023-05-10T08:43:15;13.40;;;10.75;;
21833;SDS011;11079;51.092;3.458;2023-05-10T08:45:42;21.27;;;13.00;;
21833;SDS011;11079;51.092;3.458;2023-05-10T08:48:11;52.05;;;16.90;;
21833;SDS011;11079;51.092;3.458;2023-05-10T08:50:38;19.27;;;12.18;;
21833;SDS011;11079;51.092;3.458;2023-05-10T08:53:06;27.20;;;14.00;;
21833;SDS011;11079;51.092;3.458;2023-05-10T08:55:36;21.52;;;13.85;;
21833;SDS011;11079;51.092;3.458;2023-05-10T08:58:04;44.88;;;17.85;;
21833;SDS011;11079;51.092;3.458;2023-05-10T09:00:30;16.52;;;12.68;;
21833;SDS011;11079;51.092;3.458;2023-05-10T09:02:59;15.52;;;12.32;;
21833;SDS011;11079;51.092;3.458;2023-05-10T09:05:26;17.52;;;12.25;;
21833;SDS011;11079;51.092;3.458;2023-05-10T09:07:52;15.95;;;11.18;;
21833;SDS011;11079;51.092;3.458;2023-05-10T09:10:18;15.30;;;11.93;;
21833;SDS011;11079;51.092;3.458;2023-05-10T09:12:45;15.35;;;11.80;;
21833;SDS011;11079;51.092;3.458;2023-05-10T09:15:12;15.23;;;11.55;;
21833;SDS011;11079;51.092;3.458;2023-05-10T09:17:42;15.65;;;11.55;;
21833;SDS011;11079;51.092;3.458;2023-05-10T09:20:10;14.38;;;10.48;;
21833;SDS011;11079;51.092;3.458;2023-05-10T09:22:37;13.63;;;10.75;;
21833;SDS011;11079;51.092;3.458;2023-05-10T09:25:07;12.02;;;9.25;;
21833;SDS011;11079;51.092;3.458;2023-05-10T09:27:38;14.05;;;10.60;;
21833;SDS011;11079;51.092;3.458;2023-05-10T09:30:06;14.48;;;11.30;;
21833;SDS011;11079;51.092;3.458;2023-05-10T09:32:41;14.10;;;11.02;;
21833;SDS011;11079;51.092;3.458;2023-05-10T09:35:12;13.60;;;11.20;;
21833;SDS011;11079;51.092;3.458;2023-05-10T09:37:39;14.70;;;11.63;;
21833;SDS011;11079;51.092;3.458;2023-05-10T09:40:07;16.85;;;12.25;;
21833;SDS011;11079;51.092;3.458;2023-05-10T09:42:37;14.90;;;11.48;;
21833;SDS011;11079;51.092;3.458;2023-05-10T09:45:04;14.52;;;10.95;;
21833;SDS011;11079;51.092;3.458;2023-05-10T09:47:33;14.68;;;11.07;;
21833;SDS011;11079;51.092;3.458;2023-05-10T09:50:00;18.05;;;11.38;;
21833;SDS011;11079;51.092;3.458;2023-05-10T09:52:29;15.30;;;11.85;;
21833;SDS011;11079;51.092;3.458;2023-05-10T09:55:45;15.27;;;11.43;;
21833;SDS011;11079;51.092;3.458;2023-05-10T09:58:11;15.93;;;12.15;;
21833;SDS011;11079;51.092;3.458;2023-05-10T10:00:38;14.27;;;10.80;;
21833;SDS011;11079;51.092;3.458;2023-05-10T10:03:18;13.00;;;11.05;;
21833;SDS011;11079;51.092;3.458;2023-05-10T10:05:46;15.73;;;11.18;;
21833;SDS011;11079;51.092;3.458;2023-05-10T10:08:14;16.23;;;11.35;;
21833;SDS011;11079;51.092;3.458;2023-05-10T10:10:40;17.17;;;12.80;;
21833;SDS011;11079;51.092;3.458;2023-05-10T10:13:07;18.45;;;13.65;;
21833;SDS011;11079;51.092;3.458;2023-05-10T10:15:33;19.17;;;13.82;;
21833;SDS011;11079;51.092;3.458;2023-05-10T10:17:59;18.55;;;13.68;;
21833;SDS011;11079;51.092;3.458;2023-05-10T10:20:28;20.38;;;15.18;;
21833;SDS011;11079;51.092;3.458;2023-05-10T10:22:54;22.80;;;15.65;;
21833;SDS011;11079;51.092;3.458;2023-05-10T10:25:20;22.05;;;17.23;;
21833;SDS011;11079;51.092;3.458;2023-05-10T10:30:41;26.73;;;17.77;;
21833;SDS011;11079;51.092;3.458;2023-05-10T10:35:53;33.58;;;21.77;;
21833;SDS011;11079;51.092;3.458;2023-05-10T10:38:21;31.10;;;20.27;;
21833;SDS011;11079;51.092;3.458;2023-05-10T10:40:48;31.08;;;19.50;;
21833;SDS011;11079;51.092;3.458;2023-05-10T10:43:26;30.55;;;20.55;;
21833;SDS011;11079;51.092;3.458;2023-05-10T10:46:12;35.45;;;22.27;;
21833;SDS011;11079;51.092;3.458;2023-05-10T10:55:02;35.55;;;21.33;;
21833;SDS011;11079;51.092;3.458;2023-05-10T10:57:55;38.30;;;23.48;;
21833;SDS011;11079;51.092;3.458;2023-05-10T11:00:41;36.80;;;21.80;;
21833;SDS011;11079;51.092;3.458;2023-05-10T11:03:10;41.55;;;23.42;;
21833;SDS011;11079;51.092;3.458;2023-05-10T11:05:48;33.63;;;21.45;;
21833;SDS011;11079;51.092;3.458;2023-05-10T11:08:30;36.55;;;20.50;;
21833;SDS011;11079;51.092;3.458;2023-05-10T11:13:33;29.50;;;18.52;;
21833;SDS011;11079;51.092;3.458;2023-05-10T11:18:52;29.90;;;19.23;;
21833;SDS011;11079;51.092;3.458;2023-05-10T11:21:30;26.40;;;18.02;;
21833;SDS011;11079;51.092;3.458;2023-05-10T11:23:58;31.58;;;19.25;;
21833;SDS011;11079;51.092;3.458;2023-05-10T11:26:26;31.92;;;20.25;;
21833;SDS011;11079;51.092;3.458;2023-05-10T11:28:56;36.28;;;20.13;;
21833;SDS011;11079;51.092;3.458;2023-05-10T11:31:23;32.78;;;19.65;;
21833;SDS011;11079;51.092;3.458;2023-05-10T11:33:52;29.95;;;18.17;;
21833;SDS011;11079;51.092;3.458;2023-05-10T11:36:27;30.77;;;18.42;;
21833;SDS011;11079;51.092;3.458;2023-05-10T11:38:56;29.50;;;18.83;;
21833;SDS011;11079;51.092;3.458;2023-05-10T11:41:22;26.00;;;16.25;;
21833;SDS011;11079;51.092;3.458;2023-05-10T11:43:51;30.52;;;17.80;;
21833;SDS011;11079;51.092;3.458;2023-05-10T11:46:20;28.83;;;17.85;;
21833;SDS011;11079;51.092;3.458;2023-05-10T11:48:48;25.90;;;16.00;;
21833;SDS011;11079;51.092;3.458;2023-05-10T11:51:19;21.90;;;14.05;;
21833;SDS011;11079;51.092;3.458;2023-05-10T11:53:49;26.30;;;14.20;;
21833;SDS011;11079;51.092;3.458;2023-05-10T11:56:18;19.70;;;12.25;;
21833;SDS011;11079;51.092;3.458;2023-05-10T11:58:45;16.33;;;10.05;;
21833;SDS011;11079;51.092;3.458;2023-05-10T12:01:16;18.35;;;10.90;;
21833;SDS011;11079;51.092;3.458;2023-05-10T12:03:42;19.40;;;11.07;;
21833;SDS011;11079;51.092;3.458;2023-05-10T12:06:08;18.02;;;9.98;;
21833;SDS011;11079;51.092;3.458;2023-05-10T12:08:34;18.90;;;10.35;;
21833;SDS011;11079;51.092;3.458;2023-05-10T12:11:07;17.90;;;9.80;;
21833;SDS011;11079;51.092;3.458;2023-05-10T12:13:39;16.27;;;9.32;;
21833;SDS011;11079;51.092;3.458;2023-05-10T12:16:12;19.83;;;9.15;;
21833;SDS011;11079;51.092;3.458;2023-05-10T12:18:40;18.10;;;9.60;;
21833;SDS011;11079;51.092;3.458;2023-05-10T12:21:07;17.92;;;9.43;;
21833;SDS011;11079;51.092;3.458;2023-05-10T12:23:36;16.17;;;9.90;;
21833;SDS011;11079;51.092;3.458;2023-05-10T12:26:03;19.23;;;9.25;;
21833;SDS011;11079;51.092;3.458;2023-05-10T12:28:32;14.43;;;8.65;;
21833;SDS011;11079;51.092;3.458;2023-05-10T12:31:01;14.40;;;8.10;;
21833;SDS011;11079;51.092;3.458;2023-05-10T12:33:35;22.45;;;9.50;;
21833;SDS011;11079;51.092;3.458;2023-05-10T12:36:04;25.67;;;8.82;;
21833;SDS011;11079;51.092;3.458;2023-05-10T12:40:59;12.00;;;6.78;;
21833;SDS011;11079;51.092;3.458;2023-05-10T12:43:26;10.98;;;6.90;;
21833;SDS011;11079;51.092;3.458;2023-05-10T12:45:52;12.65;;;8.00;;
21833;SDS011;11079;51.092;3.458;2023-05-10T12:48:18;11.80;;;7.13;;
21833;SDS011;11079;51.092;3.458;2023-05-10T12:50:47;13.40;;;6.70;;
21833;SDS011;11079;51.092;3.458;2023-05-10T12:53:13;14.02;;;7.68;;
21833;SDS011;11079;51.092;3.458;2023-05-10T12:55:40;16.38;;;7.80;;
21833;SDS011;11079;51.092;3.458;2023-05-10T12:58:08;14.20;;;7.03;;
21833;SDS011;11079;51.092;3.458;2023-05-10T13:00:34;13.15;;;7.25;;
21833;SDS011;11079;51.092;3.458;2023-05-10T13:03:00;13.65;;;6.75;;
21833;SDS011;11079;51.092;3.458;2023-05-10T13:05:25;13.70;;;6.38;;
21833;SDS011;11079;51.092;3.458;2023-05-10T13:07:52;13.93;;;5.80;;
21833;SDS011;11079;51.092;3.458;2023-05-10T13:10:18;13.05;;;6.15;;
21833;SDS011;11079;51.092;3.458;2023-05-10T13:12:44;11.05;;;5.20;;
21833;SDS011;11079;51.092;3.458;2023-05-10T13:15:09;9.75;;;5.47;;
21833;SDS011;11079;51.092;3.458;2023-05-10T13:17:36;13.98;;;6.22;;
21833;SDS011;11079;51.092;3.458;2023-05-10T13:20:04;13.20;;;6.43;;
21833;SDS011;11079;51.092;3.458;2023-05-10T13:22:31;13.90;;;6.72;;
21833;SDS011;11079;51.092;3.458;2023-05-10T13:24:57;11.18;;;5.63;;
21833;SDS011;11079;51.092;3.458;2023-05-10T13:27:41;14.73;;;6.20;;
21833;SDS011;11079;51.092;3.458;2023-05-10T13:30:07;12.90;;;5.53;;
21833;SDS011;11079;51.092;3.458;2023-05-10T13:32:34;12.95;;;5.85;;
21833;SDS011;11079;51.092;3.458;2023-05-10T13:35:00;13.50;;;5.30;;
21833;SDS011;11079;51.092;3.458;2023-05-10T13:37:28;9.30;;;5.07;;
21833;SDS011;11079;51.092;3.458;2023-05-10T13:39:54;10.15;;;5.82;;
21833;SDS011;11079;51.092;3.458;2023-05-10T13:42:21;9.27;;;4.80;;
21833;SDS011;11079;51.092;3.458;2023-05-10T13:44:48;11.27;;;5.07;;
21833;SDS011;11079;51.092;3.458;2023-05-10T13:47:13;11.77;;;4.82;;
21833;SDS011;11079;51.092;3.458;2023-05-10T13:49:39;13.35;;;5.53;;
21833;SDS011;11079;51.092;3.458;2023-05-10T13:52:05;12.55;;;4.78;;
21833;SDS011;11079;51.092;3.458;2023-05-10T13:54:34;9.38;;;3.92;;
21833;SDS011;11079;51.092;3.458;2023-05-10T13:57:03;9.90;;;4.13;;
21833;SDS011;11079;51.092;3.458;2023-05-10T13:59:29;13.55;;;4.28;;
21833;SDS011;11079;51.092;3.458;2023-05-10T14:01:57;10.43;;;4.47;;
21833;SDS011;11079;51.092;3.458;2023-05-10T14:04:23;10.05;;;3.05;;
21833;SDS011;11079;51.092;3.458;2023-05-10T14:06:50;8.63;;;3.33;;
21833;SDS011;11079;51.092;3.458;2023-05-10T14:09:17;13.05;;;4.10;;
21833;SDS011;11079;51.092;3.458;2023-05-10T14:11:43;9.70;;;3.53;;
21833;SDS011;11079;51.092;3.458;2023-05-10T14:14:10;10.40;;;3.75;;
21833;SDS011;11079;51.092;3.458;2023-05-10T14:16:36;8.65;;;3.47;;
21833;SDS011;11079;51.092;3.458;2023-05-10T14:19:02;8.00;;;2.42;;
21833;SDS011;11079;51.092;3.458;2023-05-10T14:21:27;6.18;;;2.38;;
21833;SDS011;11079;51.092;3.458;2023-05-10T14:23:55;7.65;;;2.15;;
21833;SDS011;11079;51.092;3.458;2023-05-10T14:26:22;9.82;;;3.53;;
21833;SDS011;11079;51.092;3.458;2023-05-10T14:28:48;8.00;;;2.47;;
21833;SDS011;11079;51.092;3.458;2023-05-10T14:31:13;8.95;;;2.47;;
21833;SDS011;11079;51.092;3.458;2023-05-10T14:33:41;5.57;;;2.42;;
21833;SDS011;11079;51.092;3.458;2023-05-10T14:36:07;9.23;;;3.33;;
21833;SDS011;11079;51.092;3.458;2023-05-10T14:38:33;9.60;;;3.17;;
21833;SDS011;11079;51.092;3.458;2023-05-10T14:40:59;7.57;;;3.33;;
21833;SDS011;11079;51.092;3.458;2023-05-10T14:43:25;7.35;;;2.67;;
21833;SDS011;11079;51.092;3.458;2023-05-10T14:45:52;6.22;;;2.58;;
21833;SDS011;11079;51.092;3.458;2023-05-10T14:48:18;6.60;;;2.35;;
21833;SDS011;11079;51.092;3.458;2023-05-10T14:50:43;8.27;;;2.75;;
21833;SDS011;11079;51.092;3.458;2023-05-10T14:53:10;8.93;;;2.42;;
21833;SDS011;11079;51.092;3.458;2023-05-10T14:55:36;9.48;;;2.90;;
21833;SDS011;11079;51.092;3.458;2023-05-10T14:58:04;8.68;;;3.10;;
21833;SDS011;11079;51.092;3.458;2023-05-10T15:00:30;9.15;;;3.20;;
21833;SDS011;11079;51.092;3.458;2023-05-10T15:02:56;8.73;;;3.85;;
21833;SDS011;11079;51.092;3.458;2023-05-10T15:05:22;7.75;;;3.50;;
21833;SDS011;11079;51.092;3.458;2023-05-10T15:07:48;11.70;;;3.50;;
21833;SDS011;11079;51.092;3.458;2023-05-10T15:10:14;9.45;;;3.13;;
21833;SDS011;11079;51.092;3.458;2023-05-10T15:12:40;10.25;;;3.00;;
21833;SDS011;11079;51.092;3.458;2023-05-10T15:15:06;9.45;;;3.33;;
21833;SDS011;11079;51.092;3.458;2023-05-10T15:17:32;13.40;;;4.20;;